Time;durP1;ratioP1;P1;durP2;ratioP2;P2;SDS_P1;SDS_P2;PMS_P1;PMS_P2;Temp;Humidity;BMP_temperature;BMP_pressure;BME280_temperature;BME280_humidity;BME280_pressure;Samples;Min_cycle;Max_cycle;Signal;HPM_P1;HPM_P2
2022/08/05 00:02:07;;;;;;;5.97;2.30;;;18.80;99.90;;;;;;5098374;28;20204;-88
2022/08/05 00:04:34;;;;;;;6.10;3.40;;;18.70;99.90;;;;;;5098205;28;20275;-89
2022/08/05 00:07:01;;;;;;;5.38;2.63;;;18.70;99.90;;;;;;5093508;28;20296;-87
2022/08/05 00:09:28;;;;;;;8.10;3.90;;;18.70;99.90;;;;;;5077369;28;20201;-89
2022/08/05 00:11:55;;;;;;;5.50;2.95;;;18.70;99.90;;;;;;5080745;28;20189;-90
2022/08/05 00:14:24;;;;;;;6.25;3.08;;;18.60;99.90;;;;;;5096815;28;20199;-89
2022/08/05 00:16:50;;;;;;;4.05;2.80;;;18.60;99.90;;;;;;5097168;28;20199;-90
2022/08/05 00:19:17;;;;;;;6.75;3.10;;;18.60;99.90;;;;;;5098387;28;20250;-90
2022/08/05 00:21:44;;;;;;;3.42;2.38;;;18.60;99.90;;;;;;5082878;28;20295;-89
2022/08/05 00:24:11;;;;;;;3.97;2.58;;;18.50;99.90;;;;;;5078013;28;20292;-89
2022/08/05 00:26:38;;;;;;;4.18;3.15;;;18.50;99.90;;;;;;5077991;28;20197;-88
2022/08/05 00:29:05;;;;;;;6.47;2.58;;;18.40;99.90;;;;;;5078738;28;20228;-89
2022/08/05 00:31:34;;;;;;;7.80;3.25;;;18.50;99.90;;;;;;5078020;28;20659;-90
2022/08/05 00:34:00;;;;;;;3.03;2.28;;;18.40;99.90;;;;;;5078057;28;20193;-88
2022/08/05 00:36:27;;;;;;;4.95;2.72;;;18.40;99.90;;;;;;5077460;28;20205;-89
2022/08/05 00:38:54;;;;;;;4.18;2.55;;;18.40;99.90;;;;;;5086519;28;20699;-86
2022/08/05 00:41:28;;;;;;;5.05;2.70;;;18.30;99.90;;;;;;5097637;28;20203;-90
2022/08/05 00:43:56;;;;;;;5.85;2.70;;;18.30;99.90;;;;;;5097749;28;20228;-90
2022/08/05 00:46:23;;;;;;;6.60;2.85;;;18.30;99.90;;;;;;5097776;28;20306;-90
2022/08/05 00:48:52;;;;;;;4.57;2.95;;;18.20;99.90;;;;;;5097740;28;20507;-90
2022/08/05 00:51:20;;;;;;;4.85;3.30;;;18.20;99.90;;;;;;5097635;28;20196;-89
2022/08/05 00:53:49;;;;;;;5.30;3.22;;;18.10;99.90;;;;;;5118179;22;20227;-90
2022/08/05 00:56:16;;;;;;;3.85;3.05;;;18.10;99.90;;;;;;5117778;28;20797;-91
2022/08/05 00:58:44;;;;;;;5.88;2.92;;;18.00;99.90;;;;;;5112823;22;20312;-90
2022/08/05 01:01:12;;;;;;;6.07;2.80;;;18.00;99.90;;;;;;5097835;28;20588;-88
2022/08/05 01:03:39;;;;;;;3.85;2.53;;;17.90;99.90;;;;;;5097609;28;20254;-89
2022/08/05 01:06:08;;;;;;;5.38;2.97;;;17.90;99.90;;;;;;5097110;28;20193;-90
2022/08/05 01:08:36;;;;;;;6.05;3.03;;;17.80;99.90;;;;;;5097121;28;20196;-88
2022/08/05 01:11:07;;;;;;;6.68;3.50;;;17.80;99.90;;;;;;5096999;28;20294;-89
2022/08/05 01:13:48;;;;;;;4.32;2.90;;;17.80;99.90;;;;;;5097105;28;20211;-85
2022/08/05 01:16:23;;;;;;;5.32;3.17;;;17.70;99.90;;;;;;5097103;28;20272;-87
2022/08/05 01:18:54;;;;;;;6.88;3.33;;;17.70;99.90;;;;;;5094384;28;20220;-86
2022/08/05 01:21:52;;;;;;;7.43;3.10;;;17.70;99.90;;;;;;5096939;28;20270;-89
2022/08/05 01:24:36;;;;;;;3.95;2.78;;;17.70;99.90;;;;;;5097386;28;20284;-88
2022/08/05 01:27:13;;;;;;;8.30;4.13;;;17.60;99.90;;;;;;5094060;28;20280;-86
2022/08/05 01:29:46;;;;;;;4.40;3.50;;;17.60;99.90;;;;;;5095264;28;20569;-87
2022/08/05 01:32:20;;;;;;;4.43;2.50;;;17.60;99.90;;;;;;5078222;28;20205;-85
2022/08/05 01:34:50;;;;;;;4.13;3.08;;;17.60;99.90;;;;;;5086821;28;20196;-86
2022/08/05 01:37:21;;;;;;;4.28;2.55;;;17.60;99.90;;;;;;5096200;28;20216;-85
2022/08/05 01:39:50;;;;;;;5.75;3.17;;;17.60;99.90;;;;;;5095445;28;20243;-85
2022/08/05 01:42:20;;;;;;;4.65;2.70;;;17.60;99.90;;;;;;5090816;28;20195;-85
2022/08/05 01:44:50;;;;;;;4.50;3.05;;;17.60;99.90;;;;;;5056302;28;20645;-85
2022/08/05 01:47:19;;;;;;;4.32;3.45;;;17.60;99.90;;;;;;5055176;28;20193;-86
2022/08/05 01:49:49;;;;;;;4.50;3.15;;;17.60;99.90;;;;;;5056191;28;20543;-86
2022/08/05 01:52:18;;;;;;;4.65;3.35;;;17.50;99.90;;;;;;5056034;28;20216;-83
2022/08/05 01:54:58;;;;;;;5.60;3.53;;;17.50;99.90;;;;;;5055082;28;20202;-86
2022/08/05 01:57:28;;;;;;;6.30;3.28;;;17.50;99.90;;;;;;5062591;28;20620;-84
2022/08/05 01:59:59;;;;;;;4.53;3.05;;;17.40;99.90;;;;;;5075692;28;20243;-89
2022/08/05 02:02:29;;;;;;;4.95;3.15;;;17.40;99.90;;;;;;5075857;28;20265;-90
2022/08/05 02:05:00;;;;;;;3.58;3.28;;;17.40;99.90;;;;;;5076100;28;20193;-86
2022/08/05 02:07:27;;;;;;;4.70;3.50;;;17.30;99.90;;;;;;5075660;28;20555;-89
2022/08/05 02:09:54;;;;;;;4.53;3.05;;;17.30;99.90;;;;;;5075915;28;20247;-88
2022/08/05 02:12:27;;;;;;;3.45;2.67;;;17.30;99.90;;;;;;5071917;28;20204;-88
2022/08/05 02:15:03;;;;;;;3.95;2.72;;;17.20;99.90;;;;;;5055320;28;20277;-89
2022/08/05 02:17:34;;;;;;;3.25;2.85;;;17.20;99.90;;;;;;5063536;28;20303;-89
2022/08/05 02:20:06;;;;;;;5.45;2.83;;;17.20;99.90;;;;;;5096189;28;20208;-88
2022/08/05 02:22:38;;;;;;;4.05;2.80;;;17.20;99.90;;;;;;5095492;28;20741;-89
2022/08/05 02:25:18;;;;;;;5.00;3.00;;;17.20;99.90;;;;;;5094767;28;20703;-86
2022/08/05 02:27:47;;;;;;;4.00;2.60;;;17.10;99.90;;;;;;5074989;28;20264;-86
2022/08/05 02:30:17;;;;;;;3.35;2.10;;;17.10;99.90;;;;;;5074472;28;20204;-86
2022/08/05 02:32:47;;;;;;;5.85;3.17;;;17.10;99.90;;;;;;5075049;28;20201;-89
2022/08/05 02:35:22;;;;;;;6.43;3.05;;;17.10;99.90;;;;;;5075299;28;20597;-88
2022/08/05 02:37:51;;;;;;;4.70;3.30;;;17.10;99.90;;;;;;5075403;28;20292;-89
2022/08/05 02:40:19;;;;;;;5.07;3.13;;;17.10;99.90;;;;;;5074990;28;20231;-89
2022/08/05 02:42:47;;;;;;;6.60;3.38;;;17.10;99.90;;;;;;5075024;28;20220;-89
2022/08/05 02:45:16;;;;;;;3.53;3.08;;;17.00;99.90;;;;;;5059448;28;20209;-88
2022/08/05 02:47:44;;;;;;;3.42;2.60;;;17.00;99.90;;;;;;5055376;28;20751;-87
2022/08/05 02:50:13;;;;;;;3.30;2.60;;;17.00;99.90;;;;;;5054698;28;20206;-89
2022/08/05 02:52:41;;;;;;;4.53;2.72;;;17.00;99.90;;;;;;5068388;28;20725;-84
2022/08/05 02:55:09;;;;;;;3.72;2.25;;;17.00;99.90;;;;;;5074372;28;20216;-85
2022/08/05 02:57:39;;;;;;;3.83;2.20;;;17.00;99.90;;;;;;5073909;28;20185;-84
2022/08/05 03:00:08;;;;;;;5.57;2.88;;;17.00;99.90;;;;;;5073423;28;20229;-89
2022/08/05 03:02:39;;;;;;;3.17;2.17;;;16.90;99.90;;;;;;5054412;28;20209;-85
2022/08/05 03:05:10;;;;;;;4.45;2.33;;;16.90;99.90;;;;;;5053174;28;20198;-83
2022/08/05 03:07:39;;;;;;;4.28;2.15;;;16.90;99.90;;;;;;5064876;28;20500;-83
2022/08/05 03:10:08;;;;;;;2.67;2.00;;;16.90;99.90;;;;;;5073521;28;20201;-90
2022/08/05 03:12:36;;;;;;;5.15;2.50;;;16.80;99.90;;;;;;5073598;28;20197;-85
2022/08/05 03:15:04;;;;;;;3.70;2.03;;;16.90;99.90;;;;;;5073455;28;20225;-85
2022/08/05 03:17:31;;;;;;;2.90;2.10;;;16.80;99.90;;;;;;5062479;28;20202;-82
2022/08/05 03:19:59;;;;;;;3.97;1.80;;;16.80;99.90;;;;;;5053210;28;20224;-85
2022/08/05 03:22:27;;;;;;;4.25;1.70;;;16.80;99.90;;;;;;5052665;28;20205;-86
2022/08/05 03:24:54;;;;;;;2.30;2.00;;;16.80;99.90;;;;;;5053251;28;20715;-88
2022/08/05 03:27:22;;;;;;;1.88;1.77;;;16.80;99.90;;;;;;5053944;28;20798;-85
2022/08/05 03:29:49;;;;;;;2.00;1.90;;;16.80;99.90;;;;;;5053336;28;20198;-84
2022/08/05 03:32:18;;;;;;;2.25;1.75;;;16.80;99.90;;;;;;5052899;28;20457;-85
2022/08/05 03:34:46;;;;;;;2.55;1.63;;;16.70;99.90;;;;;;5053041;28;20201;-83
2022/08/05 03:37:14;;;;;;;2.83;1.42;;;16.70;99.90;;;;;;5051865;28;20653;-88
2022/08/05 03:39:52;;;;;;;1.58;1.40;;;16.70;99.90;;;;;;5051380;28;20308;-88
2022/08/05 03:42:19;;;;;;;3.00;1.80;;;16.70;99.90;;;;;;5053123;28;20232;-88
2022/08/05 03:44:46;;;;;;;2.22;1.80;;;16.70;99.90;;;;;;5064466;28;20312;-88
2022/08/05 03:47:13;;;;;;;2.40;1.52;;;16.60;99.90;;;;;;5073293;28;20221;-88
2022/08/05 03:49:40;;;;;;;4.38;1.73;;;16.60;99.90;;;;;;5083657;28;20224;-89
2022/08/05 03:52:12;;;;;;;2.17;1.83;;;16.60;99.90;;;;;;5093483;28;20204;-87
2022/08/05 03:54:48;;;;;;;3.05;1.70;;;16.50;99.90;;;;;;5076833;28;20296;-89
2022/08/05 03:57:21;;;;;;;3.15;1.70;;;16.50;99.90;;;;;;5073515;28;20272;-87
2022/08/05 03:59:53;;;;;;;1.70;1.60;;;16.40;99.90;;;;;;5034636;28;1109148;-89
2022/08/05 04:02:23;;;;;;;3.03;1.83;;;16.40;99.90;;;;;;5085902;28;20458;-87
2022/08/05 04:04:51;;;;;;;2.05;1.85;;;16.30;99.90;;;;;;5094696;28;20548;-88
2022/08/05 04:07:18;;;;;;;2.75;1.77;;;16.30;99.90;;;;;;5094168;28;20584;-89
2022/08/05 04:09:47;;;;;;;2.42;1.80;;;16.30;99.90;;;;;;5094225;28;20275;-89
2022/08/05 04:12:14;;;;;;;1.77;1.58;;;16.20;99.90;;;;;;5074693;28;20216;-87
2022/08/05 04:14:42;;;;;;;2.05;1.70;;;16.20;99.90;;;;;;5074101;28;20593;-86
2022/08/05 04:17:10;;;;;;;3.53;1.83;;;16.20;99.90;;;;;;5074115;28;20224;-87
2022/08/05 04:19:43;;;;;;;2.75;1.70;;;16.20;99.90;;;;;;5073639;28;20209;-86
2022/08/05 04:22:10;;;;;;;2.03;1.67;;;16.20;99.90;;;;;;5073946;28;20205;-87
2022/08/05 04:24:37;;;;;;;2.17;1.80;;;16.20;99.90;;;;;;5074045;28;20469;-87
2022/08/05 04:27:06;;;;;;;1.70;1.60;;;16.20;99.90;;;;;;5088218;28;20204;-87
2022/08/05 04:29:32;;;;;;;3.33;2.30;;;16.10;99.90;;;;;;5089875;28;20305;-87
2022/08/05 04:32:00;;;;;;;2.55;1.60;;;16.20;99.90;;;;;;5073820;28;20601;-87
2022/08/05 04:34:27;;;;;;;3.10;1.83;;;16.20;99.90;;;;;;5073998;28;20284;-87
2022/08/05 04:36:54;;;;;;;3.43;1.93;;;16.20;99.90;;;;;;5073607;28;20225;-88
2022/08/05 04:39:21;;;;;;;2.00;1.70;;;16.20;99.90;;;;;;5073736;28;20686;-88
2022/08/05 04:41:48;;;;;;;1.95;1.80;;;16.20;99.90;;;;;;5074237;28;20220;-84
2022/08/05 04:44:17;;;;;;;2.42;1.80;;;16.20;99.90;;;;;;5076405;28;20276;-86
2022/08/05 04:46:44;;;;;;;2.40;1.70;;;16.20;99.90;;;;;;5094410;28;20204;-87
2022/08/05 04:49:11;;;;;;;2.17;1.50;;;16.20;99.90;;;;;;5076029;28;20215;-86
2022/08/05 04:51:38;;;;;;;1.67;1.58;;;16.20;99.90;;;;;;5075820;28;20200;-86
2022/08/05 04:54:05;;;;;;;2.63;1.70;;;16.10;99.90;;;;;;5075533;28;20197;-85
2022/08/05 04:56:31;;;;;;;2.33;1.50;;;16.10;99.90;;;;;;5084055;28;20283;-86
2022/08/05 04:58:58;;;;;;;3.35;1.65;;;16.10;99.90;;;;;;5079086;28;20236;-86
2022/08/05 05:01:27;;;;;;;2.67;1.50;;;16.10;99.90;;;;;;5076776;28;20292;-86
2022/08/05 05:03:53;;;;;;;1.63;1.53;;;16.10;99.90;;;;;;5076737;28;20201;-86
2022/08/05 05:06:20;;;;;;;2.60;1.67;;;16.10;99.90;;;;;;5092165;28;20208;-87
2022/08/05 05:08:47;;;;;;;3.28;1.70;;;16.10;99.90;;;;;;5097354;28;20200;-87
2022/08/05 05:11:14;;;;;;;2.58;1.83;;;16.10;99.90;;;;;;5077124;28;20608;-86
2022/08/05 05:13:41;;;;;;;2.00;1.77;;;16.10;99.90;;;;;;5075575;28;20586;-86
2022/08/05 05:16:08;;;;;;;2.67;2.05;;;16.10;99.90;;;;;;5062177;28;20201;-87
2022/08/05 05:18:36;;;;;;;2.53;1.60;;;16.20;99.90;;;;;;5056812;28;20285;-86
2022/08/05 05:21:03;;;;;;;3.15;1.80;;;16.20;99.90;;;;;;5057037;28;20236;-86
2022/08/05 05:23:30;;;;;;;3.13;1.77;;;16.20;99.90;;;;;;5056827;28;20213;-86
2022/08/05 05:25:57;;;;;;;4.03;1.73;;;16.30;99.90;;;;;;5056843;28;20220;-85
2022/08/05 05:28:24;;;;;;;1.40;1.30;;;16.30;99.90;;;;;;5057120;28;20602;-87
2022/08/05 05:30:51;;;;;;;1.67;1.58;;;16.30;99.90;;;;;;5071982;28;20479;-86
2022/08/05 05:33:21;;;;;;;3.47;1.65;;;16.40;99.90;;;;;;5076171;28;20252;-86
2022/08/05 05:35:49;;;;;;;2.10;1.43;;;16.50;99.90;;;;;;5077290;28;20196;-85
2022/08/05 05:38:17;;;;;;;4.20;1.40;;;16.60;99.90;;;;;;5065786;22;20218;-87
2022/08/05 05:40:44;;;;;;;3.00;1.27;;;16.60;99.90;;;;;;5115474;28;20219;-87
2022/08/05 05:43:11;;;;;;;2.28;1.23;;;16.70;99.90;;;;;;5116517;28;20188;-87
2022/08/05 05:45:38;;;;;;;1.75;1.30;;;16.70;99.90;;;;;;5096918;28;20212;-86
2022/08/05 05:48:06;;;;;;;1.73;1.23;;;16.80;99.90;;;;;;5097747;28;20246;-86
2022/08/05 05:50:34;;;;;;;1.60;1.00;;;16.80;99.90;;;;;;5116710;28;20238;-86
2022/08/05 05:53:02;;;;;;;2.08;1.33;;;16.90;99.90;;;;;;5115407;28;20196;-85
2022/08/05 05:55:29;;;;;;;1.20;1.00;;;16.90;99.90;;;;;;5114608;28;20275;-85
2022/08/05 05:57:56;;;;;;;3.33;1.30;;;17.00;99.90;;;;;;5116556;28;20590;-86
2022/08/05 06:00:23;;;;;;;3.63;1.33;;;17.10;99.90;;;;;;5102474;28;20227;-85
2022/08/05 06:02:50;;;;;;;2.63;1.20;;;17.30;99.90;;;;;;5103406;22;20315;-87
2022/08/05 06:05:19;;;;;;;2.55;1.10;;;17.50;99.90;;;;;;5078104;28;20201;-85
2022/08/05 06:07:46;;;;;;;1.48;1.30;;;17.80;99.90;;;;;;5079396;28;20211;-87
2022/08/05 06:10:14;;;;;;;2.88;1.30;;;18.00;99.90;;;;;;5075422;28;20216;-82
2022/08/05 06:12:41;;;;;;;4.13;1.17;;;18.30;99.90;;;;;;5075442;28;20193;-87
2022/08/05 06:15:09;;;;;;;2.63;1.00;;;18.50;99.90;;;;;;5074625;28;20197;-82
2022/08/05 06:17:38;;;;;;;2.80;1.02;;;18.80;99.90;;;;;;5072842;28;20221;-80
2022/08/05 06:20:06;;;;;;;1.83;0.90;;;19.00;99.90;;;;;;5072975;28;20238;-82
2022/08/05 06:22:34;;;;;;;2.85;1.40;;;19.30;99.90;;;;;;5085210;28;20299;-80
2022/08/05 06:25:03;;;;;;;2.53;0.90;;;19.60;99.90;;;;;;5093137;28;20201;-80
2022/08/05 06:27:31;;;;;;;4.30;1.00;;;19.90;99.10;;;;;;5092739;28;20208;-80
2022/08/05 06:29:58;;;;;;;3.40;1.20;;;20.20;96.70;;;;;;5088138;28;20201;-83
2022/08/05 06:32:25;;;;;;;3.03;1.02;;;20.30;16.80;;;;;;5093811;28;20265;-82
2022/08/05 06:34:52;;;;;;;3.83;1.20;;;20.20;1.00;;;;;;5092736;28;20283;-81
2022/08/05 06:37:20;;;;;;;5.65;1.20;;;20.10;1.00;;;;;;5093118;28;20360;-82
2022/08/05 06:39:47;;;;;;;3.00;1.10;;;20.10;18.80;;;;;;5073008;28;20223;-82
2022/08/05 06:42:15;;;;;;;2.25;0.95;;;20.10;1.00;;;;;;5052639;28;20492;-84
2022/08/05 06:44:43;;;;;;;3.65;0.90;;;20.00;1.00;;;;;;5052609;28;20281;-82
2022/08/05 06:47:10;;;;;;;2.90;1.00;;;20.00;1.00;;;;;;5053198;28;20202;-82
2022/08/05 06:49:37;;;;;;;5.40;1.10;;;20.10;1.00;;;;;;5052024;28;20186;-81
2022/08/05 06:52:05;;;;;;;9.13;1.13;;;20.10;1.00;;;;;;5052814;28;20202;-83
2022/08/05 06:54:32;;;;;;;3.10;1.08;;;20.10;1.00;;;;;;5052907;28;20206;-81
2022/08/05 06:56:59;;;;;;;4.07;1.00;;;20.30;1.00;;;;;;5052841;28;20195;-82
2022/08/05 06:59:26;;;;;;;3.03;1.30;;;20.60;1.00;;;;;;5052458;28;20285;-81
2022/08/05 07:01:54;;;;;;;4.10;0.80;;;21.00;1.00;;;;;;5053434;28;20226;-82
2022/08/05 07:04:21;;;;;;;1.45;0.50;;;21.30;1.00;;;;;;5052440;28;20295;-83
2022/08/05 07:06:48;;;;;;;1.83;0.90;;;21.40;99.90;;;;;;5053834;28;20496;-82
2022/08/05 07:09:14;;;;;;;2.50;0.90;;;21.50;99.90;;;;;;5053540;28;20208;-83
2022/08/05 07:11:41;;;;;;;2.60;0.90;;;21.70;1.00;;;;;;5052579;28;20198;-86
2022/08/05 07:16:58;;;;;;;3.05;0.73;;;22.20;1.00;;;;;;5073088;28;20185;-84
2022/08/05 07:19:26;;;;;;;3.00;1.13;;;22.40;1.00;;;;;;5072312;28;20216;-81
2022/08/05 07:21:53;;;;;;;4.25;0.63;;;22.20;1.00;;;;;;5068097;28;20218;-83
2022/08/05 07:24:20;;;;;;;2.47;0.80;;;22.10;99.90;;;;;;5093038;22;20272;-81
2022/08/05 07:26:47;;;;;;;1.08;0.52;;;22.00;99.90;;;;;;5128629;27;20279;-81
2022/08/05 07:29:15;;;;;;;1.67;0.52;;;22.00;99.90;;;;;;5113318;28;20196;-84
2022/08/05 07:31:42;;;;;;;1.95;0.75;;;21.90;99.90;;;;;;5113469;28;20192;-87
2022/08/05 07:34:10;;;;;;;3.25;0.68;;;21.80;1.00;;;;;;5113859;28;20257;-81
2022/08/05 07:36:37;;;;;;;3.13;0.70;;;21.70;1.00;;;;;;5132925;27;20697;-85
2022/08/05 07:39:06;;;;;;;1.40;0.45;;;21.60;1.00;;;;;;5133994;27;20216;-82
2022/08/05 07:41:33;;;;;;;3.88;0.70;;;21.40;99.90;;;;;;5133548;27;20228;-82
2022/08/05 07:44:01;;;;;;;1.35;0.60;;;21.40;1.00;;;;;;5110032;27;20291;-84
2022/08/05 07:46:30;;;;;;;3.63;0.55;;;21.30;1.00;;;;;;5091873;28;20211;-81
2022/08/05 07:48:58;;;;;;;3.88;0.70;;;21.20;1.00;;;;;;5092971;28;20287;-86
2022/08/05 07:51:27;;;;;;;10.25;1.02;;;21.00;1.00;;;;;;5092718;28;20597;-82
2022/08/05 07:53:54;;;;;;;5.10;0.70;;;21.00;99.90;;;;;;5093095;28;20210;-82
2022/08/05 07:56:20;;;;;;;4.10;0.82;;;20.90;26.90;;;;;;5092253;28;20280;-84
2022/08/05 07:58:47;;;;;;;4.63;0.98;;;20.90;99.90;;;;;;5092277;28;20303;-82
2022/08/05 08:01:14;;;;;;;2.55;0.45;;;20.80;99.90;;;;;;5091983;28;20311;-82
2022/08/05 08:03:41;;;;;;;1.95;0.50;;;20.80;53.50;;;;;;5091872;28;20618;-83
2022/08/05 08:06:08;;;;;;;1.80;0.50;;;20.80;1.00;;;;;;5092000;28;20201;-79
2022/08/05 08:08:36;;;;;;;1.15;0.60;;;20.70;1.00;;;;;;5092401;28;20210;-81
2022/08/05 08:11:03;;;;;;;1.10;0.40;;;20.70;1.00;;;;;;5092755;28;20260;-82
2022/08/05 08:13:30;;;;;;;2.22;0.50;;;20.70;1.00;;;;;;5091628;28;20311;-83
2022/08/05 08:15:57;;;;;;;1.17;0.52;;;20.90;15.30;;;;;;5108095;28;20554;-82
2022/08/05 08:18:24;;;;;;;1.73;0.50;;;20.90;30.80;;;;;;5124142;27;20651;-82
2022/08/05 08:20:51;;;;;;;1.80;0.70;;;21.10;1.00;;;;;;5137882;27;20226;-81
2022/08/05 08:23:18;;;;;;;2.85;0.70;;;21.10;1.00;;;;;;5137657;27;20709;-82
2022/08/05 08:25:46;;;;;;;3.60;0.68;;;21.20;1.00;;;;;;5103468;27;20630;-82
2022/08/05 08:28:13;;;;;;;2.67;0.77;;;21.20;1.00;;;;;;5095712;28;20196;-81
2022/08/05 08:30:40;;;;;;;1.05;0.65;;;21.10;1.00;;;;;;5100524;28;20504;-78
2022/08/05 08:33:08;;;;;;;2.58;0.80;;;21.10;1.00;;;;;;5096364;28;20207;-82
2022/08/05 08:35:35;;;;;;;1.23;0.50;;;21.10;1.00;;;;;;5095666;28;20200;-83
2022/08/05 08:38:02;;;;;;;2.80;0.82;;;21.10;1.00;;;;;;5101542;27;20222;-82
2022/08/05 08:40:32;;;;;;;7.00;1.08;;;21.10;1.00;;;;;;5111918;28;20228;-82
2022/08/05 08:43:00;;;;;;;3.55;0.57;;;21.00;1.00;;;;;;5109157;28;20215;-82
2022/08/05 08:45:27;;;;;;;4.85;0.90;;;21.00;1.00;;;;;;5119304;22;20256;-81
2022/08/05 08:47:56;;;;;;;1.67;0.50;;;20.90;1.00;;;;;;5095182;28;20241;-81
2022/08/05 08:50:24;;;;;;;1.60;0.52;;;20.70;1.00;;;;;;5084651;28;20288;-83
2022/08/05 08:52:56;;;;;;;6.65;1.00;;;20.70;1.00;;;;;;5091441;28;20201;-83
2022/08/05 08:55:23;;;;;;;3.22;0.60;;;20.60;1.00;;;;;;5085257;28;20213;-81
2022/08/05 08:57:50;;;;;;;2.50;0.80;;;20.60;1.00;;;;;;5081004;28;20227;-83
2022/08/05 09:00:18;;;;;;;5.60;1.10;;;20.60;1.00;;;;;;5079944;28;20240;-83
2022/08/05 09:02:46;;;;;;;2.40;0.75;;;20.50;1.00;;;;;;5076142;28;20586;-82
2022/08/05 09:05:13;;;;;;;2.47;0.70;;;20.50;1.00;;;;;;5087793;28;20561;-81
2022/08/05 09:07:41;;;;;;;0.60;0.40;;;20.50;1.00;;;;;;5075176;28;20220;-82
2022/08/05 09:10:08;;;;;;;3.78;0.50;;;20.50;29.00;;;;;;5080599;28;20204;-83
2022/08/05 09:12:37;;;;;;;0.80;0.40;;;20.50;1.00;;;;;;5088241;28;20519;-83
2022/08/05 09:15:06;;;;;;;1.95;0.60;;;20.50;1.00;;;;;;5073098;28;20200;-80
2022/08/05 09:17:34;;;;;;;2.72;0.95;;;20.50;1.00;;;;;;5073918;28;20194;-81
2022/08/05 09:20:02;;;;;;;6.75;0.80;;;20.50;1.00;;;;;;5074485;28;20272;-82
2022/08/05 09:22:42;;;;;;;6.10;0.80;;;20.50;1.00;;;;;;5069259;28;20248;-81
2022/08/05 09:25:09;;;;;;;1.90;0.70;;;20.50;1.00;;;;;;5062889;28;20205;-82
2022/08/05 09:27:37;;;;;;;2.63;0.93;;;20.40;1.00;;;;;;5074624;28;20723;-82
2022/08/05 09:30:06;;;;;;;5.03;0.90;;;20.30;1.00;;;;;;5070341;28;20206;-82
2022/08/05 09:32:38;;;;;;;5.30;0.93;;;20.30;1.00;;;;;;5053925;28;20243;-81
2022/08/05 09:35:11;;;;;;;3.65;0.93;;;20.10;99.90;;;;;;5054787;28;20209;-79
2022/08/05 09:37:48;;;;;;;4.43;0.65;;;20.00;99.90;;;;;;5053397;28;20844;-81
2022/08/05 09:40:30;;;;;;;7.60;0.70;;;20.00;1.00;;;;;;5054387;28;20281;-82
2022/08/05 09:42:57;;;;;;;2.03;0.70;;;20.00;99.90;;;;;;5054289;28;20194;-81
2022/08/05 09:45:35;;;;;;;1.42;0.57;;;19.90;1.00;;;;;;5053334;28;20194;-82
2022/08/05 09:48:24;;;;;;;2.60;0.63;;;19.90;99.90;;;;;;5053917;28;20209;-83
2022/08/05 09:50:52;;;;;;;2.95;0.60;;;19.90;99.90;;;;;;5053971;28;20549;-80
2022/08/05 09:53:19;;;;;;;2.42;0.57;;;19.90;99.90;;;;;;5053963;28;20202;-82
2022/08/05 09:55:46;;;;;;;3.47;0.85;;;20.00;99.90;;;;;;5054280;28;20197;-80
2022/08/05 09:58:15;;;;;;;1.33;0.60;;;20.00;99.90;;;;;;5054166;28;20198;-82
2022/08/05 10:00:53;;;;;;;2.15;0.60;;;20.10;99.90;;;;;;5054208;28;20289;-81
2022/08/05 10:03:22;;;;;;;1.73;0.40;;;20.10;99.90;;;;;;5054358;28;20778;-84
2022/08/05 10:06:05;;;;;;;2.95;0.68;;;20.20;99.90;;;;;;5054033;28;20259;-84
2022/08/05 10:08:33;;;;;;;2.15;0.60;;;20.30;99.90;;;;;;5054344;28;20197;-82
2022/08/05 10:11:03;;;;;;;1.15;0.68;;;20.30;99.90;;;;;;5053573;28;20229;-80
2022/08/05 10:13:34;;;;;;;3.45;0.73;;;20.50;99.90;;;;;;5053868;28;20735;-83
2022/08/05 10:16:02;;;;;;;1.33;1.00;;;20.70;1.00;;;;;;5054263;28;20590;-82
2022/08/05 10:18:32;;;;;;;5.78;0.60;;;20.80;1.00;;;;;;5060359;28;20198;-84
2022/08/05 10:21:01;;;;;;;1.52;0.70;;;20.80;1.00;;;;;;5058895;28;20226;-83
2022/08/05 10:23:31;;;;;;;2.25;0.68;;;20.70;1.00;;;;;;5052789;28;20612;-82
2022/08/05 10:25:59;;;;;;;2.28;0.80;;;20.70;1.00;;;;;;5053486;28;20606;-82
2022/08/05 10:28:26;;;;;;;2.53;0.70;;;20.70;1.00;;;;;;5052778;28;20190;-81
2022/08/05 10:30:53;;;;;;;0.60;0.43;;;20.70;1.00;;;;;;5053256;28;20208;-82
2022/08/05 10:33:22;;;;;;;0.60;0.50;;;20.70;1.00;;;;;;5053293;28;20243;-83
2022/08/05 10:35:52;;;;;;;0.93;0.65;;;20.70;1.00;;;;;;5053006;28;20198;-82
2022/08/05 10:38:20;;;;;;;2.08;0.57;;;20.70;1.00;;;;;;5052870;28;20526;-82
2022/08/05 10:41:00;;;;;;;1.15;0.50;;;20.80;1.00;;;;;;5053144;28;20198;-82
2022/08/05 10:43:48;;;;;;;1.85;0.75;;;20.90;1.00;;;;;;5053692;28;20227;-81
2022/08/05 10:46:18;;;;;;;2.97;0.75;;;21.00;1.00;;;;;;5047814;28;20226;-83
2022/08/05 10:48:46;;;;;;;2.35;0.70;;;21.10;1.00;;;;;;5052342;28;20713;-80
2022/08/05 10:51:16;;;;;;;2.42;0.60;;;21.10;1.00;;;;;;5052736;28;20194;-81
2022/08/05 10:53:45;;;;;;;3.78;0.77;;;21.10;1.00;;;;;;5053194;28;20198;-82
2022/08/05 10:56:14;;;;;;;2.42;0.80;;;21.20;1.00;;;;;;5052115;28;20809;-82
2022/08/05 10:59:04;;;;;;;3.03;0.60;;;21.50;1.00;;;;;;5052476;28;20209;-83
2022/08/05 11:01:32;;;;;;;3.97;0.70;;;21.80;1.00;;;;;;5049958;28;20237;-80
2022/08/05 11:04:04;;;;;;;1.92;0.50;;;21.90;1.00;;;;;;5052380;28;20198;-80
2022/08/05 11:06:34;;;;;;;2.53;0.57;;;22.00;1.00;;;;;;5052450;28;20210;-81
2022/08/05 11:09:18;;;;;;;2.40;0.70;;;22.10;1.00;;;;;;5051993;28;20281;-79
2022/08/05 11:11:46;;;;;;;2.08;0.75;;;22.00;1.00;;;;;;5052505;28;20277;-82
2022/08/05 11:14:22;;;;;;;2.97;0.52;;;22.00;1.00;;;;;;5052494;28;20190;-83
2022/08/05 11:17:27;;;;;;;1.05;0.60;;;22.00;1.00;;;;;;5052080;28;20474;-80
2022/08/05 11:19:56;;;;;;;0.93;0.60;;;22.10;1.00;;;;;;5071233;28;20605;-85
2022/08/05 11:22:42;;;;;;;2.85;0.63;;;22.10;1.00;;;;;;5073459;28;20214;-83
2022/08/05 11:25:29;;;;;;;1.15;0.60;;;22.10;1.00;;;;;;5060656;28;20206;-83
2022/08/05 11:27:56;;;;;;;1.55;0.80;;;22.20;1.00;;;;;;5052866;28;20284;-82
2022/08/05 11:30:23;;;;;;;1.42;0.85;;;22.30;1.00;;;;;;5052224;28;20196;-82
2022/08/05 11:32:50;;;;;;;3.53;0.50;;;22.30;1.00;;;;;;5053211;28;20206;-83
2022/08/05 11:35:54;;;;;;;0.65;0.50;;;22.30;99.90;;;;;;5053908;28;20297;-86
2022/08/05 11:38:53;;;;;;;1.42;0.63;;;22.20;1.00;;;;;;5053548;28;20312;-84
2022/08/05 11:41:22;;;;;;;1.48;0.45;;;22.10;99.90;;;;;;5053344;28;20249;-84
2022/08/05 11:43:56;;;;;;;0.95;0.50;;;22.00;99.90;;;;;;5052784;28;20209;-85
2022/08/05 11:46:27;;;;;;;6.13;1.83;;;22.00;1.00;;;;;;5051877;28;20225;-88
2022/08/05 11:48:55;;;;;;;2.67;1.40;;;22.10;99.90;;;;;;5052665;28;20293;-89
2022/08/05 11:51:22;;;;;;;2.63;1.13;;;22.20;99.90;;;;;;5050919;28;20200;-86
2022/08/05 11:53:51;;;;;;;3.42;1.17;;;22.40;1.00;;;;;;5052625;28;20593;-88
2022/08/05 11:56:18;;;;;;;3.03;0.80;;;22.50;99.90;;;;;;5052623;28;20198;-87
2022/08/05 11:58:46;;;;;;;2.67;0.98;;;22.50;99.90;;;;;;5051871;28;20236;-89
2022/08/05 12:01:15;;;;;;;1.65;0.45;;;22.50;99.90;;;;;;5052483;28;20273;-89
2022/08/05 12:03:43;;;;;;;2.65;0.70;;;22.60;99.90;;;;;;5052825;28;20255;-88
2022/08/05 12:06:11;;;;;;;6.85;0.90;;;22.70;99.90;;;;;;5053651;28;20232;-85
2022/08/05 12:08:43;;;;;;;1.85;0.50;;;22.50;99.90;;;;;;5054220;28;20205;-87
2022/08/05 12:11:17;;;;;;;1.50;0.63;;;22.70;99.90;;;;;;5054011;28;20209;-84
2022/08/05 12:13:54;;;;;;;1.67;0.57;;;22.90;99.90;;;;;;5067581;28;20232;-86
2022/08/05 12:16:22;;;;;;;3.30;0.70;;;23.10;99.90;;;;;;5059821;28;20201;-91
2022/08/05 12:18:49;;;;;;;2.13;0.45;;;23.30;99.90;;;;;;5052863;28;20225;-88
2022/08/05 12:21:18;;;;;;;2.28;0.68;;;23.60;99.90;;;;;;5051307;28;20285;-89
2022/08/05 12:23:53;;;;;;;1.85;0.40;;;23.90;99.90;;;;;;5052906;28;20201;-87
2022/08/05 12:26:21;;;;;;;2.38;0.50;;;23.90;99.90;;;;;;5055366;28;20209;-93
2022/08/05 12:28:48;;;;;;;1.42;0.60;;;24.10;99.90;;;;;;5054017;28;20274;-89
2022/08/05 12:31:16;;;;;;;3.50;0.73;;;24.10;99.90;;;;;;5052426;28;20285;-89
2022/08/05 12:33:44;;;;;;;0.85;0.50;;;24.30;99.90;;;;;;5052217;28;20213;-89
2022/08/05 12:36:13;;;;;;;2.78;0.55;;;24.30;99.90;;;;;;5062452;28;20216;-91
2022/08/05 12:38:41;;;;;;;3.00;0.80;;;24.40;99.90;;;;;;5072479;28;20262;-90
2022/08/05 12:41:11;;;;;;;6.97;1.23;;;24.40;99.90;;;;;;5059308;28;20232;-86
2022/08/05 12:43:51;;;;;;;3.38;0.90;;;24.40;99.90;;;;;;5052093;28;20308;-89
2022/08/05 12:46:26;;;;;;;5.20;1.60;;;24.20;99.90;;;;;;5052423;28;20277;-87
2022/08/05 12:48:58;;;;;;;4.18;1.20;;;24.10;99.90;;;;;;5062690;28;20287;-83
2022/08/05 12:51:26;;;;;;;2.97;0.90;;;24.00;1.00;;;;;;5072739;28;20232;-88
2022/08/05 12:53:59;;;;;;;3.92;1.08;;;23.80;99.90;;;;;;5072065;28;20586;-87
2022/08/05 12:56:26;;;;;;;3.33;0.90;;;23.50;99.90;;;;;;5057560;28;20260;-86
2022/08/05 12:59:14;;;;;;;3.03;1.10;;;23.10;1.00;;;;;;5052025;28;20281;-83
2022/08/05 13:01:42;;;;;;;3.83;0.80;;;22.70;1.00;;;;;;5053227;28;20206;-83
2022/08/05 13:04:09;;;;;;;2.70;1.00;;;22.50;1.00;;;;;;5057157;28;20233;-82
2022/08/05 13:06:41;;;;;;;3.05;0.70;;;22.40;1.00;;;;;;5056966;28;20205;-91